createdAt,value
2023-09-08T00:00:28.931Z,9.15
2023-09-08T00:03:33.777Z,6.28
2023-09-08T00:06:38.410Z,7.28
2023-09-08T00:09:43.142Z,6.78
2023-09-08T00:12:48.033Z,8.38
2023-09-08T00:15:52.812Z,5.47
2023-09-08T00:18:59.518Z,7.60
2023-09-08T00:22:07.355Z,7.03
2023-09-08T00:25:12.120Z,7.70
2023-09-08T00:28:16.966Z,6.22
2023-09-08T00:31:21.677Z,6.72
2023-09-08T00:34:26.404Z,8.10
2023-09-08T00:37:31.142Z,6.55
2023-09-08T00:40:35.729Z,7.85
2023-09-08T00:43:40.555Z,8.10
2023-09-08T00:46:45.361Z,6.78
2023-09-08T00:49:52.272Z,7.13
2023-09-08T00:52:56.721Z,7.70
2023-09-08T00:56:01.189Z,6.85
2023-09-08T00:59:08.635Z,7.35
2023-09-08T01:02:13.517Z,7.75
2023-09-08T01:05:18.282Z,6.13
2023-09-08T01:08:30.241Z,7.35
2023-09-08T01:11:37.371Z,8.02
2023-09-08T01:14:42.362Z,8.10
2023-09-08T01:17:47.200Z,7.03
2023-09-08T01:21:28.191Z,6.80
2023-09-08T01:25:04.989Z,10.00
2023-09-08T01:28:11.484Z,6.55
2023-09-08T01:31:18.975Z,7.18
2023-09-08T01:34:24.170Z,6.22
2023-09-08T01:37:28.611Z,7.47
2023-09-08T01:40:33.287Z,9.20
2023-09-08T01:43:37.758Z,9.40
2023-09-08T01:46:42.962Z,8.80
2023-09-08T01:49:47.665Z,7.38
2023-09-08T01:52:52.858Z,8.75
2023-09-08T01:55:57.203Z,7.43
2023-09-08T01:59:01.585Z,7.13
2023-09-08T02:02:06.429Z,7.82
2023-09-08T02:05:11.261Z,7.00
2023-09-08T02:08:16.261Z,8.43
2023-09-08T02:11:20.657Z,9.88
2023-09-08T02:14:28.637Z,7.65
2023-09-08T02:17:33.219Z,6.45
2023-09-08T02:20:38.117Z,7.63
2023-09-08T02:23:42.796Z,10.52
2023-09-08T02:26:47.863Z,9.25
2023-09-08T02:29:52.540Z,9.68
2023-09-08T02:32:57.167Z,6.47
2023-09-08T02:36:06.144Z,7.57
2023-09-08T02:39:12.089Z,7.20
2023-09-08T02:42:17.360Z,7.53
2023-09-08T02:45:22.187Z,8.52
2023-09-08T02:48:28.038Z,8.52
2023-09-08T02:51:32.744Z,7.35
2023-09-08T02:54:37.550Z,7.90
2023-09-08T02:57:42.888Z,7.90
2023-09-08T03:00:47.581Z,8.27
2023-09-08T03:03:53.958Z,7.55
2023-09-08T03:06:59.686Z,9.57
2023-09-08T03:10:04.945Z,8.57
2023-09-08T03:13:09.607Z,6.97
2023-09-08T03:16:14.605Z,7.85
2023-09-08T03:19:19.970Z,7.28
2023-09-08T03:22:25.933Z,8.32
2023-09-08T03:25:31.075Z,8.05
2023-09-08T03:28:37.090Z,9.35
2023-09-08T03:31:42.315Z,8.38
2023-09-08T03:34:46.849Z,7.65
2023-09-08T03:37:51.562Z,8.98
2023-09-08T03:40:56.190Z,8.77
2023-09-08T03:44:00.732Z,8.05
2023-09-08T03:47:06.304Z,10.20
2023-09-08T03:50:11.704Z,10.23
2023-09-08T03:53:16.500Z,8.20
2023-09-08T03:56:21.850Z,9.07
2023-09-08T03:59:26.835Z,8.45
2023-09-08T04:02:31.705Z,7.95
2023-09-08T04:05:36.386Z,8.82
2023-09-08T04:08:41.100Z,8.27
2023-09-08T04:11:45.923Z,8.38
2023-09-08T04:14:50.873Z,9.27
2023-09-08T04:17:56.727Z,8.40
2023-09-08T04:21:01.454Z,7.70
2023-09-08T04:24:07.665Z,8.68
2023-09-08T04:27:13.777Z,11.02
2023-09-08T04:30:20.395Z,8.82
2023-09-08T04:33:25.689Z,9.68
2023-09-08T04:36:31.718Z,7.72
2023-09-08T04:39:38.256Z,9.50
2023-09-08T04:42:43.318Z,11.07
2023-09-08T04:45:48.378Z,9.75
2023-09-08T04:48:53.058Z,9.50
2023-09-08T04:51:58.526Z,9.52
2023-09-08T04:55:04.367Z,9.48
2023-09-08T04:58:09.556Z,9.80
2023-09-08T05:01:14.454Z,10.02
2023-09-08T05:04:19.674Z,10.65
2023-09-08T05:07:25.203Z,9.48
2023-09-08T05:10:31.070Z,9.95
2023-09-08T05:13:35.714Z,7.72
2023-09-08T05:16:50.626Z,8.43
2023-09-08T05:19:59.558Z,9.40
2023-09-08T05:23:04.932Z,11.18
2023-09-08T05:26:09.917Z,9.90
2023-09-08T05:29:14.779Z,10.88
2023-09-08T05:32:19.527Z,9.20
2023-09-08T05:35:23.937Z,9.63
2023-09-08T05:38:29.864Z,9.07
2023-09-08T05:41:35.112Z,8.05
2023-09-08T05:44:41.514Z,13.60
2023-09-08T05:47:46.843Z,16.77
2023-09-08T05:50:51.650Z,9.05
2023-09-08T05:53:56.533Z,9.43
2023-09-08T05:57:01.072Z,9.00
2023-09-08T06:00:06.406Z,8.90
2023-09-08T06:03:18.026Z,8.90
2023-09-08T06:06:23.410Z,9.70
2023-09-08T06:09:28.224Z,9.48
2023-09-08T06:12:40.246Z,9.55
2023-09-08T06:15:45.477Z,8.93
2023-09-08T06:18:50.277Z,9.43
2023-09-08T06:21:57.964Z,9.13
2023-09-08T06:25:02.615Z,7.93
2023-09-08T06:28:08.152Z,8.50
2023-09-08T06:31:13.398Z,9.10
2023-09-08T06:34:23.293Z,8.20
2023-09-08T06:37:30.066Z,9.02
2023-09-08T06:40:34.546Z,7.90
2023-09-08T06:43:39.784Z,8.32
2023-09-08T06:46:51.352Z,7.38
2023-09-08T06:49:56.833Z,10.15
2023-09-08T06:53:01.765Z,8.13
2023-09-08T06:56:07.031Z,7.70
2023-09-08T06:59:13.376Z,7.78
2023-09-08T07:02:18.023Z,7.65
2023-09-08T07:05:23.053Z,6.97
2023-09-08T07:08:27.940Z,6.80
2023-09-08T07:11:33.894Z,6.63
2023-09-08T07:14:39.452Z,8.75
2023-09-08T07:17:44.487Z,9.50
2023-09-08T07:20:52.241Z,8.60
2023-09-08T07:23:59.529Z,8.90
2023-09-08T07:27:08.154Z,8.80
2023-09-08T07:30:13.749Z,7.80
2023-09-08T07:33:20.430Z,7.88
2023-09-08T07:36:25.473Z,9.20
2023-09-08T07:39:32.987Z,7.38
2023-09-08T07:42:37.824Z,7.10
2023-09-08T07:45:43.564Z,7.47
2023-09-08T07:48:48.453Z,6.93
2023-09-08T07:51:53.112Z,7.40
2023-09-08T07:54:57.626Z,5.35
2023-09-08T07:58:06.978Z,10.85
2023-09-08T08:01:13.607Z,8.77
2023-09-08T08:04:18.384Z,7.50
2023-09-08T08:07:22.939Z,7.38
2023-09-08T08:10:28.171Z,6.75
2023-09-08T08:13:32.749Z,5.72
2023-09-08T08:16:37.148Z,7.78
2023-09-08T08:19:41.762Z,12.38
2023-09-08T08:22:47.225Z,7.63
2023-09-08T08:25:54.275Z,6.40
2023-09-08T08:28:59.456Z,5.43
2023-09-08T08:32:04.392Z,9.15
2023-09-08T08:35:09.135Z,6.95
2023-09-08T08:38:13.675Z,5.57
2023-09-08T08:41:18.303Z,6.00
2023-09-08T08:44:24.528Z,6.65
2023-09-08T08:47:30.413Z,6.10
2023-09-08T08:50:37.273Z,6.80
2023-09-08T08:53:43.615Z,8.20
2023-09-08T08:56:48.942Z,6.88
2023-09-08T08:59:54.543Z,5.75
2023-09-08T09:03:13.245Z,7.13
2023-09-08T09:06:20.063Z,5.50
2023-09-08T09:09:26.496Z,5.40
2023-09-08T09:12:31.745Z,5.18
2023-09-08T09:15:36.857Z,6.35
2023-09-08T09:19:01.103Z,5.43
2023-09-08T09:22:05.846Z,6.25
2023-09-08T09:25:11.894Z,6.93
2023-09-08T09:28:17.371Z,7.60
2023-09-08T09:31:26.862Z,6.22
2023-09-08T09:34:31.944Z,5.38
2023-09-08T09:37:37.317Z,5.53
2023-09-08T09:40:43.882Z,6.63
2023-09-08T09:43:49.048Z,4.97
2023-09-08T09:46:56.111Z,6.72
2023-09-08T09:50:01.420Z,4.78
2023-09-08T09:53:15.776Z,5.88
2023-09-08T09:56:23.193Z,5.03
2023-09-08T09:59:28.776Z,5.82
2023-09-08T10:02:34.885Z,5.35
2023-09-08T10:05:40.199Z,4.97
2023-09-08T10:08:45.498Z,5.10
2023-09-08T10:11:51.238Z,7.65
2023-09-08T10:14:57.717Z,6.25
2023-09-08T10:18:06.886Z,6.88
2023-09-08T10:21:14.379Z,5.68
2023-09-08T10:24:47.571Z,5.30
2023-09-08T10:27:54.623Z,6.18
2023-09-08T10:31:00.123Z,6.90
2023-09-08T10:34:05.496Z,6.70
2023-09-08T10:37:30.584Z,6.18
2023-09-08T10:40:35.397Z,6.07
2023-09-08T10:43:39.952Z,8.35
2023-09-08T10:46:46.263Z,6.03
2023-09-08T10:49:56.731Z,5.78
2023-09-08T10:53:15.580Z,7.43
2023-09-08T10:56:20.569Z,6.15
2023-09-08T10:59:36.558Z,7.32
2023-09-08T11:02:55.690Z,7.82
2023-09-08T11:06:00.492Z,6.95
2023-09-08T11:09:09.245Z,8.05
2023-09-08T11:12:17.071Z,10.27
2023-09-08T11:15:21.895Z,8.32
2023-09-08T11:18:38.194Z,6.85
2023-09-08T11:21:43.315Z,8.73
2023-09-08T11:24:49.458Z,6.88
2023-09-08T11:27:55.432Z,8.32
2023-09-08T11:31:00.316Z,7.03
2023-09-08T11:34:06.555Z,6.63
2023-09-08T11:37:15.936Z,8.98
2023-09-08T11:40:22.547Z,9.73
2023-09-08T11:43:28.681Z,8.20
2023-09-08T11:46:33.773Z,11.00
2023-09-08T11:49:43.254Z,7.25
2023-09-08T11:52:50.543Z,7.40
2023-09-08T11:55:55.915Z,6.72
2023-09-08T11:59:01.407Z,6.65
2023-09-08T12:02:06.406Z,8.13
2023-09-08T12:05:25.400Z,7.40
2023-09-08T12:08:31.687Z,6.80
2023-09-08T12:11:36.645Z,6.40
2023-09-08T12:14:47.568Z,7.07
2023-09-08T12:17:58.786Z,7.65
2023-09-08T12:21:09.176Z,6.43
2023-09-08T12:24:15.094Z,5.18
2023-09-08T12:27:20.968Z,6.15
2023-09-08T12:30:30.943Z,6.68
2023-09-08T12:33:37.033Z,6.65
2023-09-08T12:36:46.215Z,6.53
2023-09-08T12:39:51.892Z,7.22
2023-09-08T12:43:01.747Z,6.50
2023-09-08T12:46:13.828Z,7.68
2023-09-08T12:49:18.899Z,8.23
2023-09-08T12:52:23.301Z,5.82
2023-09-08T12:55:27.967Z,6.00
2023-09-08T12:58:33.629Z,5.95
2023-09-08T13:01:38.520Z,7.05
2023-09-08T13:04:43.325Z,6.78
2023-09-08T13:07:48.134Z,6.63
2023-09-08T13:10:52.810Z,8.80
2023-09-08T13:13:57.110Z,7.07
2023-09-08T13:17:03.564Z,5.60
2023-09-08T13:20:09.570Z,8.77
2023-09-08T13:23:14.447Z,7.78
2023-09-08T13:26:19.833Z,10.00
2023-09-08T13:29:24.767Z,6.47
2023-09-08T13:32:30.072Z,6.47
2023-09-08T13:35:34.927Z,6.55
2023-09-08T13:38:40.069Z,7.63
2023-09-08T13:41:56.514Z,5.75
2023-09-08T13:45:01.625Z,6.85
2023-09-08T13:48:07.927Z,7.57
2023-09-08T13:51:14.275Z,7.13
2023-09-08T13:54:19.722Z,8.07
2023-09-08T13:57:28.423Z,6.18
2023-09-08T14:00:34.724Z,6.50
2023-09-08T14:04:02.739Z,8.23
2023-09-08T14:07:11.823Z,5.70
2023-09-08T14:13:29.829Z,7.18
2023-09-08T14:16:34.873Z,6.28
2023-09-08T14:19:39.667Z,5.78
2023-09-08T14:22:47.790Z,5.47
2023-09-08T14:25:52.406Z,9.52
2023-09-08T14:28:57.006Z,5.10
2023-09-08T14:32:01.943Z,6.80
2023-09-08T14:35:07.269Z,6.40
2023-09-08T14:38:14.702Z,5.68
2023-09-08T14:41:19.864Z,6.13
2023-09-08T14:44:25.246Z,6.07
2023-09-08T14:47:29.805Z,6.07
2023-09-08T14:50:35.680Z,5.00
2023-09-08T14:53:41.059Z,5.55
2023-09-08T14:56:46.288Z,5.45
2023-09-08T14:59:55.373Z,6.18
2023-09-08T15:03:00.580Z,8.02
2023-09-08T15:06:05.710Z,6.15
2023-09-08T15:09:10.639Z,5.75
2023-09-08T15:12:15.050Z,5.20
2023-09-08T15:15:24.634Z,7.80
2023-09-08T15:18:30.295Z,5.03
2023-09-08T15:21:36.886Z,6.68
2023-09-08T15:24:41.566Z,5.25
2023-09-08T15:27:47.096Z,5.82
2023-09-08T15:30:53.969Z,8.38
2023-09-08T15:33:58.680Z,7.75
2023-09-08T15:37:03.319Z,5.57
2023-09-08T15:40:15.032Z,5.32
2023-09-08T15:43:19.490Z,7.60
2023-09-08T15:46:24.141Z,6.43
2023-09-08T15:49:28.880Z,5.97
2023-09-08T15:52:33.271Z,7.28
2023-09-08T15:55:38.058Z,7.03
2023-09-08T15:58:43.203Z,5.63
2023-09-08T16:01:48.054Z,5.20
2023-09-08T16:04:52.963Z,8.20
2023-09-08T16:07:57.580Z,6.32
2023-09-08T16:11:02.714Z,6.50
2023-09-08T16:14:07.205Z,7.65
2023-09-08T16:17:11.992Z,7.75
2023-09-08T16:20:18.152Z,5.68
2023-09-08T16:23:24.867Z,7.15
2023-09-08T16:26:29.785Z,6.28
2023-09-08T16:29:34.527Z,5.65
2023-09-08T16:32:39.338Z,6.57
2023-09-08T16:35:43.792Z,7.25
2023-09-08T16:38:48.449Z,5.78
2023-09-08T16:41:53.090Z,7.00
2023-09-08T16:44:57.739Z,6.22
2023-09-08T16:48:02.584Z,6.72
2023-09-08T16:51:07.478Z,6.22
2023-09-08T16:54:13.389Z,6.55
2023-09-08T16:57:18.385Z,5.70
2023-09-08T17:00:23.841Z,6.90
2023-09-08T17:03:28.375Z,5.50
2023-09-08T17:06:32.716Z,6.60
2023-09-08T17:09:37.405Z,7.43
2023-09-08T17:12:42.326Z,7.25
2023-09-08T17:15:47.915Z,6.57
2023-09-08T17:18:52.866Z,6.70
2023-09-08T17:21:59.213Z,7.93
2023-09-08T17:25:04.269Z,6.90
2023-09-08T17:28:09.235Z,6.28
2023-09-08T17:31:14.186Z,9.52
2023-09-08T17:34:22.254Z,6.28
2023-09-08T17:37:26.674Z,6.90
2023-09-08T17:40:32.496Z,7.70
2023-09-08T17:43:37.560Z,8.27
2023-09-08T17:46:43.385Z,9.85
2023-09-08T17:49:47.969Z,8.50
2023-09-08T17:52:52.883Z,9.32
2023-09-08T17:55:57.396Z,7.97
2023-09-08T17:59:02.198Z,8.45
2023-09-08T18:02:06.944Z,7.18
2023-09-08T18:05:11.767Z,7.43
2023-09-08T18:08:17.024Z,7.22
2023-09-08T18:11:22.177Z,9.60
2023-09-08T18:14:26.794Z,7.32
2023-09-08T18:17:32.594Z,7.60
2023-09-08T18:20:37.234Z,9.50
2023-09-08T18:23:42.513Z,6.75
2023-09-08T18:26:47.036Z,10.07
2023-09-08T18:29:51.685Z,8.02
2023-09-08T18:32:56.566Z,7.57
2023-09-08T18:36:01.733Z,7.55
2023-09-08T18:39:06.701Z,9.05
2023-09-08T18:42:11.378Z,7.20
2023-09-08T18:45:15.853Z,6.85
2023-09-08T18:48:20.733Z,9.00
2023-09-08T18:51:25.532Z,9.23
2023-09-08T18:54:33.306Z,7.28
2023-09-08T18:57:38.154Z,8.13
2023-09-08T19:00:45.418Z,8.45
2023-09-08T19:03:50.096Z,8.63
2023-09-08T19:06:56.629Z,8.98
2023-09-08T19:10:02.859Z,8.23
2023-09-08T19:13:07.253Z,7.45
2023-09-08T19:16:11.937Z,8.82
2023-09-08T19:19:16.938Z,8.38
2023-09-08T19:22:21.583Z,8.38
2023-09-08T19:25:26.297Z,8.13
2023-09-08T19:28:31.030Z,8.07
2023-09-08T19:31:35.753Z,9.85
2023-09-08T19:34:40.757Z,9.20
2023-09-08T19:37:45.402Z,8.10
2023-09-08T19:41:00.928Z,9.07
2023-09-08T19:44:05.573Z,9.18
2023-09-08T19:47:10.820Z,9.82
2023-09-08T19:50:15.458Z,9.07
2023-09-08T19:53:21.902Z,7.60
2023-09-08T19:56:27.449Z,9.13
2023-09-08T19:59:32.303Z,9.20
2023-09-08T20:02:36.966Z,7.65
2023-09-08T20:05:46.426Z,7.90
2023-09-08T20:08:51.271Z,8.10
2023-09-08T20:11:56.121Z,8.60
2023-09-08T20:15:00.435Z,7.47
2023-09-08T20:18:05.437Z,7.30
2023-09-08T20:21:10.983Z,10.35
2023-09-08T20:24:16.073Z,11.35
2023-09-08T20:27:20.882Z,9.73
2023-09-08T20:30:25.749Z,10.02
2023-09-08T20:33:30.965Z,11.13
2023-09-08T20:36:35.391Z,12.45
2023-09-08T20:39:39.986Z,12.27
2023-09-08T20:42:44.794Z,10.98
2023-09-08T20:45:58.269Z,11.27
2023-09-08T20:49:04.130Z,9.65
2023-09-08T20:52:12.856Z,10.77
2023-09-08T20:55:17.898Z,9.25
2023-09-08T20:58:23.072Z,10.10
2023-09-08T21:01:28.302Z,12.82
2023-09-08T21:04:33.227Z,14.82
2023-09-08T21:07:38.088Z,14.65
2023-09-08T21:10:43.515Z,12.13
2023-09-08T21:13:48.601Z,12.63
2023-09-08T21:16:53.469Z,10.90
2023-09-08T21:20:00.002Z,10.88
2023-09-08T21:23:05.258Z,11.70
2023-09-08T21:26:10.197Z,10.20
2023-09-08T21:29:15.008Z,11.27
2023-09-08T21:32:19.563Z,12.48
2023-09-08T21:35:27.206Z,11.23
2023-09-08T21:38:31.959Z,11.13
2023-09-08T21:41:36.910Z,12.05
2023-09-08T21:44:41.788Z,12.23
2023-09-08T21:47:50.952Z,10.68
2023-09-08T21:50:55.515Z,9.93
2023-09-08T21:54:00.332Z,10.68
2023-09-08T21:57:05.551Z,8.45
2023-09-08T22:00:16.004Z,10.63
2023-09-08T22:03:20.860Z,8.77
2023-09-08T22:06:25.539Z,8.40
2023-09-08T22:09:32.573Z,12.98
2023-09-08T22:12:37.012Z,9.27
2023-09-08T22:15:42.034Z,9.50
2023-09-08T22:18:46.676Z,9.15
2023-09-08T22:21:51.264Z,8.85
2023-09-08T22:24:55.799Z,8.30
2023-09-08T22:28:01.914Z,9.18
2023-09-08T22:31:06.474Z,8.52
2023-09-08T22:34:11.273Z,10.73
2023-09-08T22:37:16.614Z,8.90
2023-09-08T22:40:22.137Z,10.25
2023-09-08T22:43:27.944Z,8.88
2023-09-08T22:46:32.556Z,10.50
2023-09-08T22:50:07.543Z,8.38
2023-09-08T22:53:14.230Z,11.18
2023-09-08T22:56:18.812Z,11.23
2023-09-08T22:59:23.733Z,11.00
2023-09-08T23:02:28.491Z,9.30
2023-09-08T23:05:33.058Z,8.70
2023-09-08T23:08:37.427Z,10.07
2023-09-08T23:11:42.088Z,9.35
2023-09-08T23:14:54.479Z,10.48
2023-09-08T23:17:59.589Z,9.45
2023-09-08T23:21:04.244Z,9.23
2023-09-08T23:24:09.174Z,8.68
2023-09-08T23:27:14.304Z,9.25
2023-09-08T23:30:18.749Z,9.93
2023-09-08T23:33:23.494Z,9.63
2023-09-08T23:36:27.895Z,9.23
2023-09-08T23:39:33.150Z,9.52
2023-09-08T23:42:37.737Z,10.48
2023-09-08T23:45:46.690Z,10.75
2023-09-08T23:48:51.145Z,11.75
2023-09-08T23:51:55.832Z,9.45
2023-09-08T23:55:00.494Z,9.55
2023-09-08T23:58:05.118Z,9.50
